Kline, Colorado
Current Conditions -  °F | °C
As of 1:53 AM on Saturday 25 Oct 2014 (Local Time) from KDRO Reporting Station
Clear Clear  
Wind Chill: 39°   Ceiling: Unl
Heat Index: 42°   Visibility: 10mi
Dew Point: 33°   Wind: 5mph
Humidity: 70%   Direction: 30°NNE
Pressure: 30.37"   Gusts: NA
Location:  37.1547°N, 108.155°W
Report Text: KDRO 250753Z AUTO 03004KT 10SM CLR 06/01 A3037 RMK AO2 SLP236 T00560006
Loading
Personal Weather Stations






























Interactive Weather Map
Tropical Storm Tracking
New forecast layout! Learn more

10-Day Weather Forecast

Advertisements
Track Severe Weather on mobile